createdAt,value
2023-03-22T00:01:21.501Z,5.93
2023-03-22T00:03:49.792Z,6.55
2023-03-22T00:06:16.784Z,6.45
2023-03-22T00:08:44.669Z,6.47
2023-03-22T00:11:13.036Z,6.30
2023-03-22T00:13:43.027Z,6.90
2023-03-22T00:16:11.059Z,6.60
2023-03-22T00:18:38.099Z,6.10
2023-03-22T00:21:05.538Z,6.47
2023-03-22T00:23:32.451Z,7.22
2023-03-22T00:25:59.320Z,7.07
2023-03-22T00:28:26.198Z,6.78
2023-03-22T00:30:58.681Z,6.43
2023-03-22T00:33:25.945Z,7.18
2023-03-22T00:35:59.158Z,6.45
2023-03-22T00:38:42.106Z,6.65
2023-03-22T00:41:11.012Z,6.85
2023-03-22T00:43:38.432Z,7.55
2023-03-22T00:46:06.098Z,6.75
2023-03-22T00:48:33.089Z,7.38
2023-03-22T00:50:59.933Z,7.97
2023-03-22T00:53:29.151Z,7.55
2023-03-22T00:55:59.673Z,7.50
2023-03-22T00:58:26.877Z,7.90
2023-03-22T01:00:53.854Z,7.28
2023-03-22T01:03:22.082Z,7.43
2023-03-22T01:05:49.674Z,7.40
2023-03-22T01:08:16.854Z,7.40
2023-03-22T01:10:44.921Z,8.18
2023-03-22T01:13:12.284Z,7.25
2023-03-22T01:15:39.151Z,8.18
2023-03-22T01:18:06.081Z,7.70
2023-03-22T01:20:33.417Z,8.10
2023-03-22T01:23:00.237Z,7.40
2023-03-22T01:25:27.054Z,8.25
2023-03-22T01:27:54.106Z,8.00
2023-03-22T01:30:21.122Z,7.60
2023-03-22T01:32:47.912Z,7.60
2023-03-22T01:35:14.784Z,7.50
2023-03-22T01:37:41.760Z,7.72
2023-03-22T01:40:10.839Z,7.10
2023-03-22T01:42:37.647Z,8.13
2023-03-22T01:45:34.878Z,7.50
2023-03-22T01:48:14.423Z,8.57
2023-03-22T01:50:45.842Z,8.98
2023-03-22T01:53:15.257Z,8.90
2023-03-22T01:55:42.871Z,7.90
2023-03-22T01:58:09.828Z,10.15
2023-03-22T02:00:37.153Z,8.45
2023-03-22T02:03:05.722Z,8.57
2023-03-22T02:05:33.502Z,8.93
2023-03-22T02:08:01.091Z,8.85
2023-03-22T02:10:28.678Z,9.05
2023-03-22T02:13:20.697Z,9.35
2023-03-22T02:16:09.355Z,10.23
2023-03-22T02:18:39.080Z,9.10
2023-03-22T02:21:47.472Z,9.13
2023-03-22T02:24:46.367Z,9.50
2023-03-22T02:27:28.310Z,9.07
2023-03-22T02:30:29.403Z,9.93
2023-03-22T02:33:15.013Z,9.55
2023-03-22T02:36:02.058Z,10.10
2023-03-22T02:38:47.579Z,10.00
2023-03-22T02:41:20.046Z,10.30
2023-03-22T02:46:30.773Z,10.45
2023-03-22T02:49:18.779Z,10.07
2023-03-22T02:52:17.376Z,10.15
2023-03-22T02:55:07.647Z,10.25
2023-03-22T02:58:02.386Z,10.38
2023-03-22T03:00:31.267Z,11.02
2023-03-22T03:03:11.230Z,12.27
2023-03-22T03:05:41.720Z,11.68
2023-03-22T03:08:10.938Z,11.52
2023-03-22T03:10:43.030Z,12.23
2023-03-22T03:13:13.663Z,11.90
2023-03-22T03:15:45.376Z,12.88
2023-03-22T03:18:32.307Z,11.32
2023-03-22T03:21:23.245Z,13.48
2023-03-22T03:24:13.484Z,12.00
2023-03-22T03:26:51.153Z,12.50
2023-03-22T03:29:44.120Z,13.65
2023-03-22T03:32:16.627Z,14.25
2023-03-22T03:37:22.862Z,13.43
2023-03-22T03:40:16.678Z,12.50
2023-03-22T03:42:49.615Z,12.48
2023-03-22T03:45:18.199Z,12.90
2023-03-22T03:47:47.058Z,13.77
2023-03-22T03:50:16.138Z,13.27
2023-03-22T03:52:43.560Z,13.00
2023-03-22T03:55:10.661Z,13.00
2023-03-22T03:57:37.532Z,12.85
2023-03-22T04:00:05.765Z,12.52
2023-03-22T04:02:32.737Z,12.63
2023-03-22T04:04:59.577Z,13.23
2023-03-22T04:07:26.651Z,13.23
2023-03-22T04:09:53.451Z,13.43
2023-03-22T04:12:21.108Z,12.80
2023-03-22T04:14:47.900Z,13.65
2023-03-22T04:17:14.676Z,14.35
2023-03-22T04:19:42.264Z,14.32
2023-03-22T04:22:14.677Z,13.82
2023-03-22T04:24:41.810Z,14.82
2023-03-22T04:27:08.729Z,13.32
2023-03-22T04:29:36.351Z,14.18
2023-03-22T04:32:03.764Z,15.02
2023-03-22T04:34:31.523Z,12.85
2023-03-22T04:36:58.325Z,13.85
2023-03-22T04:39:25.177Z,14.32
2023-03-22T04:41:52.058Z,13.25
2023-03-22T04:44:18.875Z,14.13
2023-03-22T04:46:45.783Z,13.75
2023-03-22T04:49:12.657Z,14.75
2023-03-22T04:51:39.471Z,15.68
2023-03-22T04:54:06.419Z,15.05
2023-03-22T04:56:33.267Z,14.57
2023-03-22T04:59:00.246Z,15.00
2023-03-22T05:01:27.226Z,13.98
2023-03-22T05:03:54.026Z,14.05
2023-03-22T05:06:20.945Z,14.93
2023-03-22T05:08:47.781Z,15.43
2023-03-22T05:11:17.266Z,14.98
2023-03-22T05:13:44.134Z,13.70
2023-03-22T05:16:12.149Z,14.70
2023-03-22T05:18:42.544Z,14.35
2023-03-22T05:21:17.944Z,15.25
2023-03-22T05:23:45.843Z,15.73
2023-03-22T05:26:15.787Z,14.20
2023-03-22T05:28:43.765Z,17.42
2023-03-22T05:31:11.881Z,14.93
2023-03-22T05:33:39.279Z,16.40
2023-03-22T05:36:06.447Z,16.42
2023-03-22T05:38:33.315Z,16.38
2023-03-22T05:41:00.433Z,16.35
2023-03-22T05:43:27.239Z,15.05
2023-03-22T05:45:54.087Z,16.27
2023-03-22T05:48:21.310Z,16.88
2023-03-22T05:50:48.201Z,16.13
2023-03-22T05:53:15.429Z,15.75
2023-03-22T05:55:42.274Z,15.82
2023-03-22T05:58:10.963Z,16.27
2023-03-22T06:00:38.485Z,15.85
2023-03-22T06:03:05.609Z,16.42
2023-03-22T06:05:33.044Z,15.90
2023-03-22T06:08:00.252Z,15.65
2023-03-22T06:10:28.197Z,15.40
2023-03-22T06:12:55.462Z,15.10
2023-03-22T06:15:22.777Z,14.73
2023-03-22T06:17:49.635Z,15.27
2023-03-22T06:20:16.634Z,16.08
2023-03-22T06:22:43.672Z,14.90
2023-03-22T06:25:11.315Z,15.00
2023-03-22T06:27:38.394Z,14.35
2023-03-22T06:30:06.736Z,15.35
2023-03-22T06:32:33.616Z,14.85
2023-03-22T06:35:00.417Z,15.77
2023-03-22T06:37:27.340Z,14.40
2023-03-22T06:39:56.669Z,15.55
2023-03-22T06:42:23.499Z,16.00
2023-03-22T06:44:50.493Z,15.38
2023-03-22T06:47:17.675Z,14.98
2023-03-22T06:49:44.693Z,14.43
2023-03-22T06:52:11.519Z,15.43
2023-03-22T06:54:38.466Z,14.80
2023-03-22T06:57:05.527Z,15.65
2023-03-22T06:59:32.724Z,14.60
2023-03-22T07:01:59.561Z,14.57
2023-03-22T07:04:28.569Z,14.10
2023-03-22T07:06:59.100Z,14.80
2023-03-22T07:09:34.271Z,14.65
2023-03-22T07:12:01.224Z,13.15
2023-03-22T07:14:31.827Z,14.23
2023-03-22T07:17:01.850Z,14.90
2023-03-22T07:19:28.990Z,14.45
2023-03-22T07:21:56.015Z,13.73
2023-03-22T07:24:25.385Z,14.43
2023-03-22T07:26:52.324Z,13.90
2023-03-22T07:29:20.096Z,14.13
2023-03-22T07:31:47.048Z,14.82
2023-03-22T07:34:14.237Z,14.55
2023-03-22T07:36:41.301Z,13.77
2023-03-22T07:39:08.177Z,14.35
2023-03-22T07:41:35.021Z,14.45
2023-03-22T07:44:16.673Z,14.60
2023-03-22T07:46:44.179Z,13.93
2023-03-22T07:49:11.120Z,12.68
2023-03-22T07:51:38.330Z,13.20
2023-03-22T07:54:07.526Z,12.80
2023-03-22T07:56:35.195Z,11.50
2023-03-22T07:59:02.251Z,12.63
2023-03-22T08:01:31.812Z,13.13
2023-03-22T08:03:58.740Z,11.45
2023-03-22T08:06:25.626Z,12.82
2023-03-22T08:08:52.620Z,11.00
2023-03-22T08:11:19.535Z,11.80
2023-03-22T08:13:46.458Z,12.43
2023-03-22T08:16:13.345Z,11.27
2023-03-22T08:18:40.713Z,10.98
2023-03-22T08:21:07.617Z,12.02
2023-03-22T08:23:41.492Z,10.63
2023-03-22T08:26:10.383Z,10.95
2023-03-22T08:28:37.550Z,11.05
2023-03-22T08:31:15.561Z,10.10
2023-03-22T08:33:43.893Z,9.73
2023-03-22T08:36:14.820Z,10.07
2023-03-22T08:38:42.610Z,9.35
2023-03-22T08:41:09.587Z,9.48
2023-03-22T08:43:39.497Z,9.48
2023-03-22T08:46:08.388Z,9.15
2023-03-22T08:48:38.065Z,8.82
2023-03-22T08:51:06.609Z,9.00
2023-03-22T08:53:33.715Z,8.35
2023-03-22T08:56:01.771Z,8.38
2023-03-22T08:58:28.714Z,9.68
2023-03-22T09:00:55.779Z,8.10
2023-03-22T09:03:24.894Z,8.13
2023-03-22T09:05:52.072Z,8.93
2023-03-22T09:08:20.014Z,8.13
2023-03-22T09:10:55.319Z,6.78
2023-03-22T09:13:22.148Z,7.90
2023-03-22T09:15:50.331Z,7.75
2023-03-22T09:18:17.321Z,7.50
2023-03-22T09:20:45.963Z,7.15
2023-03-22T09:23:15.808Z,6.72
2023-03-22T09:25:47.221Z,6.53
2023-03-22T09:28:14.790Z,7.28
2023-03-22T09:30:42.042Z,6.82
2023-03-22T09:33:09.377Z,7.28
2023-03-22T09:35:40.189Z,6.25
2023-03-22T09:38:07.229Z,6.18
2023-03-22T09:40:36.553Z,6.38
2023-03-22T09:43:07.414Z,5.55
2023-03-22T09:45:45.019Z,5.20
2023-03-22T09:48:36.757Z,5.65
2023-03-22T09:51:07.758Z,5.57
2023-03-22T09:53:40.963Z,5.10
2023-03-22T09:56:16.973Z,4.68
2023-03-22T09:59:14.254Z,5.50
2023-03-22T10:02:03.119Z,5.55
2023-03-22T10:04:49.990Z,4.80
2023-03-22T10:08:03.222Z,4.88
2023-03-22T10:10:33.032Z,4.32
2023-03-22T10:13:22.555Z,4.88
2023-03-22T10:15:55.872Z,4.20
2023-03-22T10:18:38.964Z,4.60
2023-03-22T10:21:08.581Z,4.03
2023-03-22T10:23:46.645Z,4.85
2023-03-22T10:26:46.342Z,4.57
2023-03-22T10:29:40.693Z,4.05
2023-03-22T10:32:59.533Z,4.75
2023-03-22T10:35:26.943Z,4.20
2023-03-22T10:37:55.776Z,4.53
2023-03-22T10:40:30.221Z,4.30
2023-03-22T10:43:04.371Z,3.83
2023-03-22T10:45:34.864Z,4.03
2023-03-22T10:48:10.934Z,3.80
2023-03-22T10:50:42.204Z,3.65
2023-03-22T10:53:24.797Z,3.55
2023-03-22T10:58:20.968Z,3.72
2023-03-22T11:01:02.212Z,3.10
2023-03-22T11:03:41.920Z,2.78
2023-03-22T11:06:20.943Z,2.60
2023-03-22T11:08:57.590Z,2.60
2023-03-22T11:11:24.376Z,2.20
2023-03-22T11:14:04.284Z,2.65
2023-03-22T11:16:32.330Z,2.85
2023-03-22T11:19:02.202Z,3.08
2023-03-22T11:21:33.298Z,2.40
2023-03-22T11:24:06.040Z,2.88
2023-03-22T11:26:39.047Z,2.42
2023-03-22T11:29:16.524Z,2.92
2023-03-22T11:31:59.210Z,2.30
2023-03-22T11:34:30.761Z,2.60
2023-03-22T11:37:00.881Z,2.57
2023-03-22T11:39:29.300Z,2.58
2023-03-22T11:42:06.365Z,2.22
2023-03-22T11:44:35.589Z,1.98
2023-03-22T11:47:04.238Z,2.20
2023-03-22T11:49:46.389Z,2.10
2023-03-22T11:52:18.524Z,3.05
2023-03-22T11:54:47.321Z,2.53
2023-03-22T11:57:24.392Z,2.10
2023-03-22T12:00:20.069Z,6.38
2023-03-22T12:02:58.403Z,3.30
2023-03-22T12:05:28.615Z,2.72
2023-03-22T12:08:06.863Z,2.08
2023-03-22T12:10:40.212Z,2.38
2023-03-22T12:13:27.021Z,2.10
2023-03-22T12:15:58.159Z,2.10
2023-03-22T12:18:41.447Z,2.00
2023-03-22T12:21:10.481Z,1.90
2023-03-22T12:23:37.621Z,1.75
2023-03-22T12:26:12.979Z,2.05
2023-03-22T12:29:01.890Z,1.98
2023-03-22T12:31:43.683Z,1.98
2023-03-22T12:34:17.323Z,2.00
2023-03-22T12:36:49.605Z,1.80
2023-03-22T12:39:43.383Z,2.03
2023-03-22T12:42:29.266Z,2.00
2023-03-22T12:45:05.590Z,1.92
2023-03-22T12:47:42.288Z,1.70
2023-03-22T12:50:17.343Z,2.33
2023-03-22T12:52:49.923Z,2.63
2023-03-22T12:55:32.178Z,1.75
2023-03-22T12:57:59.799Z,1.55
2023-03-22T13:00:39.025Z,2.10
2023-03-22T13:03:18.287Z,1.88
2023-03-22T13:05:48.590Z,1.50
2023-03-22T13:08:22.964Z,1.80
2023-03-22T13:10:58.087Z,2.00
2023-03-22T13:13:25.527Z,2.95
2023-03-22T13:16:13.773Z,2.17
2023-03-22T13:18:43.384Z,1.73
2023-03-22T13:21:21.620Z,2.58
2023-03-22T13:24:04.663Z,2.40
2023-03-22T13:26:46.111Z,2.17
2023-03-22T13:29:19.151Z,1.92
2023-03-22T13:31:52.388Z,1.92
2023-03-22T13:34:30.428Z,2.30
2023-03-22T13:36:58.933Z,2.42
2023-03-22T13:39:31.942Z,2.13
2023-03-22T13:42:07.964Z,2.30
2023-03-22T13:44:40.603Z,2.03
2023-03-22T13:47:34.847Z,1.63
2023-03-22T13:50:16.116Z,2.08
2023-03-22T13:52:52.978Z,1.92
2023-03-22T13:55:47.129Z,2.03
2023-03-22T13:58:52.395Z,2.35
2023-03-22T14:01:35.313Z,1.92
2023-03-22T14:04:11.385Z,2.58
2023-03-22T14:06:50.108Z,1.90
2023-03-22T14:09:44.398Z,2.70
2023-03-22T14:12:27.605Z,1.95
2023-03-22T14:15:02.567Z,1.80
2023-03-22T14:17:50.837Z,1.58
2023-03-22T14:20:20.799Z,2.45
